Terminal Aerodrome Forecast
Issued by NWS Missoula, MT

Home | Current Version | Previous Version | Text Only | Print | Product List | Glossary On
Versions: 1 2 3 4 5 6 7 8 9 10 11 12 13 14
000
FTUS45 KMSO 040705 AAA
TAFBTM
TAF AMD
KBTM 040705Z 0407/0506 VRB04KT 4SM -RA BR SCT015 OVC040
     FM040800 VRB04KT 6SM -RA BR SCT015 OVC040
     FM041600 30008KT 6SM -SHRA SCT020 OVC050=

USA.gov is the U.S. government's official web portal to all federal, state and local government web resources and services.